Time;durP1;ratioP1;P1;durP2;ratioP2;P2;SDS_P1;SDS_P2;PMS_P1;PMS_P2;Temp;Humidity;BMP_temperature;BMP_pressure;BME280_temperature;BME280_humidity;BME280_pressure;Samples;Min_cycle;Max_cycle;Signal;HPM_P1;HPM_P2
2021/07/10 00:00:45;;;;;;;23.42;8.02;;;;;;;23.84;45.40;101709.06;4996174;28;20022;-60
2021/07/10 00:03:10;;;;;;;17.90;7.90;;;;;;;23.79;45.08;101693.22;4995841;28;20030;-61
2021/07/10 00:05:36;;;;;;;28.05;7.75;;;;;;;23.78;45.73;101697.84;4995959;28;20054;-60
2021/07/10 00:08:01;;;;;;;18.50;7.57;;;;;;;23.74;45.55;101696.53;4995816;28;20030;-60
2021/07/10 00:10:27;;;;;;;18.25;7.20;;;;;;;23.68;45.81;101683.63;4995035;28;20026;-60
2021/07/10 00:12:53;;;;;;;16.98;7.15;;;;;;;23.69;46.35;101690.81;4994827;28;20026;-60
2021/07/10 00:15:21;;;;;;;15.52;6.75;;;;;;;23.64;45.35;101693.28;4995600;28;20018;-60
2021/07/10 00:17:48;;;;;;;19.77;6.30;;;;;;;23.65;46.00;101686.75;4995788;28;20030;-61
2021/07/10 00:20:13;;;;;;;10.38;6.00;;;;;;;23.64;45.70;101693.28;4995304;28;20023;-60
2021/07/10 00:22:40;;;;;;;17.65;6.32;;;;;;;23.57;45.50;101680.56;4996277;28;20026;-60
2021/07/10 00:25:10;;;;;;;20.85;6.10;;;;;;;23.58;46.16;101683.09;4994538;28;20030;-59
2021/07/10 00:27:37;;;;;;;17.27;6.80;;;;;;;23.52;45.85;101681.13;4995898;28;20022;-60
2021/07/10 00:30:04;;;;;;;24.10;8.15;;;;;;;23.52;46.45;101689.34;4995652;28;20109;-61
2021/07/10 00:32:29;;;;;;;19.52;7.35;;;;;;;23.49;45.45;101681.53;4995091;28;20073;-60
2021/07/10 00:34:55;;;;;;;16.88;7.50;;;;;;;23.47;45.61;101680.88;4995557;28;20026;-60
2021/07/10 00:37:20;;;;;;;20.90;6.70;;;;;;;23.44;46.33;101674.94;4995254;28;20015;-60
2021/07/10 00:39:45;;;;;;;20.67;6.85;;;;;;;23.44;46.53;101669.47;4995146;28;20033;-60
2021/07/10 00:42:11;;;;;;;22.52;7.43;;;;;;;23.40;45.67;101669.00;4994833;28;20372;-60
2021/07/10 00:44:36;;;;;;;10.80;5.90;;;;;;;23.39;46.32;101671.94;4993609;28;20026;-60
2021/07/10 00:47:01;;;;;;;11.98;5.53;;;;;;;23.36;46.47;101666.81;4995141;28;20069;-61
2021/07/10 00:49:27;;;;;;;12.50;5.10;;;;;;;23.29;46.61;101663.13;4994615;28;20077;-60
2021/07/10 00:51:52;;;;;;;9.90;5.75;;;;;;;23.29;46.02;101666.72;4995210;28;20038;-61
2021/07/10 00:54:18;;;;;;;7.45;4.55;;;;;;;23.26;46.25;101675.31;4994799;28;20113;-60
2021/07/10 00:56:45;;;;;;;9.25;5.05;;;;;;;23.20;46.37;101663.25;4994941;28;20027;-60
2021/07/10 00:59:11;;;;;;;6.85;4.95;;;;;;;23.22;45.69;101665.81;4993454;28;20033;-60
2021/07/10 01:01:37;;;;;;;13.82;4.93;;;;;;;23.13;45.76;101647.81;5026264;28;20486;-60
2021/07/10 01:04:02;;;;;;;8.98;5.38;;;;;;;23.17;46.66;101651.88;4993596;28;20050;-60
2021/07/10 01:06:28;;;;;;;11.05;5.55;;;;;;;23.17;46.64;101657.34;4994994;28;20455;-60
2021/07/10 01:08:53;;;;;;;10.32;5.88;;;;;;;23.15;46.24;101653.94;4995138;28;20452;-60
2021/07/10 01:11:18;;;;;;;8.10;4.85;;;;;;;23.11;46.86;101641.69;4994779;28;20030;-59
2021/07/10 01:13:44;;;;;;;12.18;5.10;;;;;;;23.06;46.90;101644.97;4994967;28;20359;-61
2021/07/10 01:16:09;;;;;;;10.60;5.38;;;;;;;23.04;46.80;101646.22;4994445;28;20026;-60
2021/07/10 01:18:34;;;;;;;9.75;5.63;;;;;;;23.03;45.83;101650.00;4994890;28;20117;-60
2021/07/10 01:21:00;;;;;;;10.60;5.22;;;;;;;22.99;45.92;101637.75;4994595;28;20077;-60
2021/07/10 01:23:26;;;;;;;7.57;5.32;;;;;;;22.98;46.22;101641.50;5026162;28;20026;-59
2021/07/10 01:25:52;;;;;;;12.90;5.03;;;;;;;22.96;46.14;101649.06;4994236;28;20027;-61
2021/07/10 01:28:18;;;;;;;10.30;5.45;;;;;;;22.94;47.01;101640.22;4992950;28;20113;-60
2021/07/10 01:30:44;;;;;;;12.55;4.65;;;;;;;22.92;46.06;101642.28;4994903;28;20045;-60
2021/07/10 01:33:10;;;;;;;11.02;5.32;;;;;;;22.90;46.08;101638.88;4994511;28;20022;-61
2021/07/10 01:35:35;;;;;;;17.40;5.80;;;;;;;22.87;47.00;101631.06;4994598;28;20068;-60
2021/07/10 01:38:12;;;;;;;8.80;4.93;;;;;;;22.85;46.43;101633.13;4994581;28;20022;-61
2021/07/10 01:40:38;;;;;;;7.63;5.10;;;;;;;22.83;47.22;101616.94;4994499;28;20462;-61
2021/07/10 01:43:05;;;;;;;7.88;4.57;;;;;;;22.82;46.87;101628.03;4993240;28;20034;-61
2021/07/10 01:45:31;;;;;;;7.55;4.93;;;;;;;22.79;46.88;101618.34;4994031;28;20022;-60
2021/07/10 01:47:57;;;;;;;8.40;5.03;;;;;;;22.77;46.83;101614.13;4994679;28;20493;-61
2021/07/10 01:50:23;;;;;;;11.05;5.63;;;;;;;22.76;46.41;101620.59;4993899;28;20051;-60
2021/07/10 01:52:49;;;;;;;7.93;4.85;;;;;;;22.76;46.74;101623.34;4994024;28;20042;-61
2021/07/10 01:55:15;;;;;;;9.15;4.78;;;;;;;22.75;47.08;101624.41;4994424;28;20018;-60
2021/07/10 01:57:46;;;;;;;9.02;5.22;;;;;;;22.74;46.49;101615.34;4994835;28;20033;-60
2021/07/10 02:00:15;;;;;;;9.77;4.80;;;;;;;22.74;46.82;101611.75;4994556;28;20045;-60
2021/07/10 02:02:42;;;;;;;10.57;5.10;;;;;;;22.75;47.32;101610.72;4994255;28;20026;-60
2021/07/10 02:05:08;;;;;;;8.95;5.07;;;;;;;22.75;46.50;101605.28;5025563;28;20030;-60
2021/07/10 02:07:34;;;;;;;9.60;5.18;;;;;;;22.74;47.03;101606.28;4976831;28;20436;-60
2021/07/10 02:09:59;;;;;;;9.98;4.75;;;;;;;22.73;47.49;101605.44;4994262;28;20066;-61
2021/07/10 02:12:24;;;;;;;9.52;5.70;;;;;;;22.76;47.21;101609.69;4994624;28;20030;-60
2021/07/10 02:14:50;;;;;;;6.97;4.57;;;;;;;22.75;47.53;101599.81;4993844;28;20030;-60
2021/07/10 02:17:16;;;;;;;9.70;5.05;;;;;;;22.78;47.59;101607.63;4992778;28;20081;-60
2021/07/10 02:19:41;;;;;;;8.15;4.55;;;;;;;22.77;47.27;101595.00;4993986;28;20077;-60
2021/07/10 02:22:07;;;;;;;8.88;4.47;;;;;;;22.82;46.98;101603.47;4992541;28;20042;-60
2021/07/10 02:24:33;;;;;;;8.07;4.93;;;;;;;22.83;47.38;101606.03;5025204;28;20030;-59
2021/07/10 02:26:58;;;;;;;8.57;4.88;;;;;;;22.86;47.19;101604.78;4994199;28;20030;-60
2021/07/10 02:29:23;;;;;;;13.60;5.15;;;;;;;22.76;46.96;101582.34;4993917;28;20025;-60
2021/07/10 02:31:49;;;;;;;10.07;5.05;;;;;;;22.88;47.12;101597.25;4994277;28;20049;-61
2021/07/10 02:34:15;;;;;;;9.50;5.15;;;;;;;22.88;48.03;101597.25;4994373;28;20081;-60
2021/07/10 02:36:40;;;;;;;7.93;4.47;;;;;;;22.91;47.94;101597.72;4996281;28;20018;-60
2021/07/10 02:39:06;;;;;;;10.30;4.90;;;;;;;22.92;48.00;101583.00;4996323;28;20029;-60
2021/07/10 02:41:31;;;;;;;8.15;4.85;;;;;;;22.93;48.07;101590.16;4997589;28;20026;-61
2021/07/10 02:43:57;;;;;;;8.32;4.50;;;;;;;22.95;47.16;101585.34;4997671;28;20375;-60
2021/07/10 02:46:22;;;;;;;8.90;4.80;;;;;;;22.96;48.14;101583.47;4997514;28;20049;-61
2021/07/10 02:48:48;;;;;;;7.50;4.75;;;;;;;22.97;47.30;101580.56;4997892;28;20106;-61
2021/07/10 02:51:13;;;;;;;12.02;4.93;;;;;;;22.97;47.90;101574.25;4996337;28;20062;-60
2021/07/10 02:53:39;;;;;;;10.85;6.07;;;;;;;23.02;47.73;101569.03;4995989;28;20141;-61
2021/07/10 02:56:04;;;;;;;8.13;5.15;;;;;;;23.02;47.34;101564.41;4997129;28;20019;-61
2021/07/10 02:58:30;;;;;;;8.52;4.95;;;;;;;23.06;47.83;101568.44;4997453;28;20022;-61
2021/07/10 03:00:55;;;;;;;10.02;5.30;;;;;;;23.06;48.32;101567.63;4995861;28;20022;-61
2021/07/10 03:03:21;;;;;;;7.13;4.80;;;;;;;23.12;47.80;101567.69;4996709;28;20023;-61
2021/07/10 03:05:47;;;;;;;6.50;4.10;;;;;;;23.15;47.99;101560.97;4996840;28;20434;-61
2021/07/10 03:08:12;;;;;;;8.68;4.85;;;;;;;23.16;47.94;101560.81;4996984;28;20030;-60
2021/07/10 03:10:39;;;;;;;9.73;4.75;;;;;;;23.20;48.58;101566.72;4996830;28;20031;-60
2021/07/10 03:13:05;;;;;;;8.60;4.60;;;;;;;23.15;47.75;101553.63;4996876;28;20542;-60
2021/07/10 03:15:30;;;;;;;10.02;4.60;;;;;;;23.17;48.00;101559.75;4995299;28;20113;-60
2021/07/10 03:17:56;;;;;;;7.70;5.00;;;;;;;23.13;48.15;101557.59;4996754;28;20058;-60
2021/07/10 03:20:23;;;;;;;8.98;4.80;;;;;;;23.14;47.64;101559.31;4995282;28;20026;-60
2021/07/10 03:22:49;;;;;;;8.25;4.97;;;;;;;23.12;48.48;101555.91;4996447;28;20027;-61
2021/07/10 03:25:16;;;;;;;9.40;4.65;;;;;;;23.12;48.77;101550.44;4996813;28;20026;-60
2021/07/10 03:27:43;;;;;;;12.20;4.25;;;;;;;23.11;48.73;101551.50;4996321;28;20467;-59
2021/07/10 03:30:10;;;;;;;10.90;4.50;;;;;;;23.11;48.74;101548.75;4996475;28;20034;-60
2021/07/10 03:32:38;;;;;;;9.20;4.95;;;;;;;23.11;48.25;101548.75;4996755;28;20026;-61
2021/07/10 03:35:04;;;;;;;11.15;4.45;;;;;;;23.11;48.48;101537.81;4996235;28;20022;-60
2021/07/10 03:37:30;;;;;;;13.80;5.57;;;;;;;23.11;47.71;101548.75;4994928;28;20091;-60
2021/07/10 03:39:55;;;;;;;10.65;4.78;;;;;;;23.11;48.74;101548.75;4996886;28;20054;-59
2021/07/10 03:42:20;;;;;;;10.00;4.95;;;;;;;23.11;47.89;101548.75;4997164;28;20066;-60
2021/07/10 03:44:46;;;;;;;10.82;5.40;;;;;;;23.11;48.64;101548.75;4996216;28;20034;-60
2021/07/10 03:47:11;;;;;;;11.82;5.00;;;;;;;23.11;48.81;101543.28;4995734;28;20406;-61
2021/07/10 03:49:36;;;;;;;11.43;5.47;;;;;;;23.13;48.06;101533.00;4996307;28;20026;-61
2021/07/10 03:52:02;;;;;;;12.23;5.13;;;;;;;23.15;48.15;101536.38;4995730;28;20402;-60
2021/07/10 03:54:28;;;;;;;11.73;4.65;;;;;;;23.16;47.99;101530.72;4995913;28;20038;-60
2021/07/10 03:56:53;;;;;;;12.32;4.97;;;;;;;23.17;48.34;101534.31;4996234;28;20034;-60
2021/07/10 03:59:18;;;;;;;11.93;6.80;;;;;;;23.16;47.89;101529.88;4996067;28;20026;-60
2021/07/10 04:01:45;;;;;;;6.68;4.35;;;;;;;23.14;48.02;101537.44;4995697;28;20109;-60
2021/07/10 04:04:14;;;;;;;10.30;4.22;;;;;;;23.13;48.10;101538.47;4995913;28;20029;-60
2021/07/10 04:06:39;;;;;;;8.68;4.93;;;;;;;23.13;48.73;101524.78;4995859;28;20113;-60
2021/07/10 04:09:05;;;;;;;7.72;4.10;;;;;;;23.10;48.67;101519.72;4994942;28;20478;-60
2021/07/10 04:11:31;;;;;;;12.60;4.53;;;;;;;23.11;48.90;101525.00;4995792;28;20427;-60
2021/07/10 04:13:56;;;;;;;8.00;4.82;;;;;;;23.06;47.78;101513.78;4994175;28;20053;-60
2021/07/10 04:16:22;;;;;;;10.80;4.25;;;;;;;23.10;47.76;101522.44;4995707;28;20459;-60
2021/07/10 04:18:47;;;;;;;8.50;4.60;;;;;;;23.07;48.48;101536.50;4995306;28;20478;-60
2021/07/10 04:21:13;;;;;;;7.45;4.65;;;;;;;23.05;48.89;101530.38;4995286;28;20022;-60
2021/07/10 04:23:38;;;;;;;10.70;4.53;;;;;;;23.08;47.92;101530.00;4995172;28;20368;-60
2021/07/10 04:26:03;;;;;;;8.65;4.47;;;;;;;23.04;48.33;101528.69;4995400;28;20041;-60
2021/07/10 04:28:29;;;;;;;12.05;4.78;;;;;;;23.06;47.93;101534.81;4995412;28;20026;-60
2021/07/10 04:30:55;;;;;;;9.77;4.80;;;;;;;23.07;48.00;101528.31;4995217;28;20053;-60
2021/07/10 04:33:20;;;;;;;8.57;4.40;;;;;;;23.07;48.04;101533.75;4995366;28;20072;-60
2021/07/10 04:35:45;;;;;;;7.55;5.05;;;;;;;23.08;48.46;101532.75;4995081;28;20033;-60
2021/07/10 04:38:10;;;;;;;11.80;5.18;;;;;;;23.11;48.48;101532.34;4995667;28;20054;-60
2021/07/10 04:40:36;;;;;;;7.97;4.68;;;;;;;23.18;47.96;101536.00;4995326;28;20034;-60
2021/07/10 04:43:02;;;;;;;12.80;5.35;;;;;;;23.21;48.02;101524.66;4995369;28;20026;-60
2021/07/10 04:45:28;;;;;;;8.50;5.63;;;;;;;23.31;48.92;101524.34;4995292;28;20033;-60
2021/07/10 04:47:53;;;;;;;8.68;4.97;;;;;;;23.41;48.98;101528.50;4995409;28;20027;-59
2021/07/10 04:50:21;;;;;;;9.73;4.65;;;;;;;23.46;48.60;101520.53;4995138;28;20043;-60
2021/07/10 04:52:47;;;;;;;8.70;4.95;;;;;;;23.61;48.75;101528.66;4994714;28;20030;-60
2021/07/10 04:55:14;;;;;;;8.40;5.13;;;;;;;23.74;48.71;101528.78;4994752;28;20018;-60
2021/07/10 04:57:40;;;;;;;11.25;5.72;;;;;;;23.89;47.86;101526.81;4994195;28;20083;-60
2021/07/10 05:00:06;;;;;;;9.77;6.43;;;;;;;24.05;48.44;101531.97;4994904;28;20379;-61
2021/07/10 05:02:32;;;;;;;12.07;5.50;;;;;;;24.21;47.67;101531.69;4994547;28;20479;-60
2021/07/10 05:04:57;;;;;;;10.13;5.38;;;;;;;24.37;47.67;101530.53;4994355;28;20029;-60
2021/07/10 05:07:23;;;;;;;9.85;5.88;;;;;;;24.49;48.46;101528.88;4994671;28;20088;-60
2021/07/10 05:09:49;;;;;;;11.93;6.22;;;;;;;24.69;47.92;101528.97;4994816;28;20026;-60
2021/07/10 05:12:16;;;;;;;15.07;6.18;;;;;;;24.88;47.56;101528.25;4994774;28;20072;-60
2021/07/10 05:14:42;;;;;;;11.65;6.28;;;;;;;25.07;47.54;101526.63;4994594;28;20022;-60
2021/07/10 05:17:07;;;;;;;14.88;6.70;;;;;;;25.26;47.79;101525.84;4994323;28;20036;-60
2021/07/10 05:19:32;;;;;;;11.70;6.32;;;;;;;25.39;47.53;101531.34;4994537;28;20076;-60
2021/07/10 05:21:58;;;;;;;11.13;6.60;;;;;;;25.51;47.65;101521.47;4994519;28;20455;-60
2021/07/10 05:24:23;;;;;;;10.75;5.65;;;;;;;25.65;47.10;101520.41;4995090;28;20360;-61
2021/07/10 05:26:48;;;;;;;11.68;6.43;;;;;;;25.76;47.78;101525.28;4994478;28;20037;-61
2021/07/10 05:29:14;;;;;;;15.85;6.60;;;;;;;25.85;47.77;101521.22;4994360;28;20037;-61
2021/07/10 05:31:39;;;;;;;11.65;6.28;;;;;;;25.95;47.25;101521.66;4994448;28;20030;-60
2021/07/10 05:34:05;;;;;;;15.75;6.65;;;;;;;26.00;47.21;101523.75;4994164;28;20430;-59
2021/07/10 05:36:31;;;;;;;13.55;6.95;;;;;;;26.04;47.48;101523.16;4994650;28;20023;-61
2021/07/10 05:38:56;;;;;;;13.05;6.38;;;;;;;26.07;47.20;101519.13;4994246;28;20458;-60
2021/07/10 05:41:22;;;;;;;11.30;5.60;;;;;;;26.10;47.52;101515.09;4994428;28;20037;-60
2021/07/10 05:43:48;;;;;;;10.50;6.72;;;;;;;26.14;47.21;101519.13;4994353;28;20023;-60
2021/07/10 05:46:13;;;;;;;10.98;6.07;;;;;;;26.16;47.23;101515.09;4994260;28;20379;-61
2021/07/10 05:48:39;;;;;;;9.50;5.95;;;;;;;26.26;47.36;101517.41;4994355;28;20359;-60
2021/07/10 05:51:04;;;;;;;11.65;6.55;;;;;;;26.26;47.27;101506.44;4993493;28;20051;-60
2021/07/10 05:53:29;;;;;;;19.77;6.85;;;;;;;26.41;46.86;101513.34;4993873;28;20092;-61
2021/07/10 05:55:55;;;;;;;14.77;6.65;;;;;;;26.56;46.59;101511.19;4994154;28;20019;-60
2021/07/10 05:58:20;;;;;;;11.93;6.38;;;;;;;26.66;46.34;101516.25;4994382;28;20034;-59
2021/07/10 06:00:45;;;;;;;15.63;6.93;;;;;;;26.75;46.56;101516.81;4994102;28;20026;-60
2021/07/10 06:03:11;;;;;;;12.85;7.28;;;;;;;26.86;46.71;101511.50;4993788;28;20027;-61
2021/07/10 06:05:37;;;;;;;14.05;6.45;;;;;;;26.91;46.66;101511.69;4994052;28;20089;-61
2021/07/10 06:08:03;;;;;;;12.40;6.90;;;;;;;27.04;46.45;101519.88;4993809;28;20034;-60
2021/07/10 06:10:28;;;;;;;12.45;6.50;;;;;;;27.15;45.86;101518.31;4996930;28;20034;-60
2021/07/10 06:12:53;;;;;;;10.35;6.82;;;;;;;27.23;46.39;101525.47;4997609;28;20030;-60
2021/07/10 06:15:19;;;;;;;14.82;7.93;;;;;;;27.29;45.80;101508.06;4997714;28;20058;-60
2021/07/10 06:17:45;;;;;;;26.70;8.93;;;;;;;27.44;46.07;101515.00;4997988;28;20030;-60
2021/07/10 06:20:15;;;;;;;14.52;8.07;;;;;;;27.60;45.51;101508.09;4998508;28;20043;-60
2021/07/10 06:22:42;;;;;;;15.25;8.00;;;;;;;27.84;44.79;101507.22;4998238;28;20027;-59
2021/07/10 06:25:09;;;;;;;14.15;8.68;;;;;;;28.06;44.65;101504.94;4997588;28;20038;-59
2021/07/10 06:27:34;;;;;;;12.90;7.93;;;;;;;28.24;44.51;101497.53;4997642;28;20526;-59
2021/07/10 06:30:00;;;;;;;15.40;8.10;;;;;;;28.43;44.67;101511.31;4997506;28;20120;-60
2021/07/10 06:32:25;;;;;;;15.43;7.82;;;;;;;28.57;43.89;101508.16;4997311;28;20129;-59
2021/07/10 06:34:51;;;;;;;13.13;8.07;;;;;;;28.67;44.41;101502.16;4997439;28;20084;-59
2021/07/10 06:37:17;;;;;;;19.13;10.05;;;;;;;28.80;44.19;101504.72;5028737;28;20023;-59
2021/07/10 06:39:43;;;;;;;17.02;9.18;;;;;;;29.07;43.03;101507.94;4997327;28;20030;-60
2021/07/10 06:42:08;;;;;;;17.75;9.55;;;;;;;29.32;43.99;101505.91;4997916;28;20038;-61
2021/07/10 06:44:33;;;;;;;22.50;9.57;;;;;;;29.39;43.41;101501.16;4997016;28;20109;-60
2021/07/10 06:46:59;;;;;;;19.67;9.25;;;;;;;29.50;42.96;101502.25;4997110;28;20026;-60
2021/07/10 06:49:24;;;;;;;17.30;8.80;;;;;;;29.59;43.25;101501.66;4997104;28;20023;-61
2021/07/10 06:51:50;;;;;;;15.80;8.80;;;;;;;29.69;43.21;101503.81;4996762;28;20487;-60
2021/07/10 06:54:15;;;;;;;17.45;9.27;;;;;;;29.79;42.76;101504.06;4996988;28;20023;-60
2021/07/10 06:56:40;;;;;;;15.20;8.25;;;;;;;29.79;42.76;101507.66;4997002;28;20456;-59
2021/07/10 06:59:06;;;;;;;16.27;7.72;;;;;;;29.80;42.85;101508.56;4997057;28;20034;-60
2021/07/10 07:01:31;;;;;;;14.57;8.50;;;;;;;29.82;42.57;101511.91;4997354;28;20084;-59
2021/07/10 07:03:57;;;;;;;15.18;8.73;;;;;;;29.86;42.92;101499.31;4996876;28;20033;-59
2021/07/10 07:06:22;;;;;;;17.52;9.45;;;;;;;29.91;42.50;101496.66;4996547;28;20054;-60
2021/07/10 07:08:47;;;;;;;18.52;9.43;;;;;;;29.94;42.07;101498.94;4996585;28;20030;-59
2021/07/10 07:11:13;;;;;;;14.35;7.95;;;;;;;29.98;42.25;101508.44;4996503;28;20026;-60
2021/07/10 07:13:39;;;;;;;14.88;7.55;;;;;;;30.00;42.04;101503.53;4996479;28;20037;-59
2021/07/10 07:16:05;;;;;;;12.75;7.15;;;;;;;30.00;41.58;101511.81;4996426;28;20109;-60
2021/07/10 07:18:30;;;;;;;14.23;6.88;;;;;;;30.01;41.51;101505.22;4996695;28;20379;-60
2021/07/10 07:20:55;;;;;;;15.93;7.75;;;;;;;30.01;41.56;101507.97;4996142;28;20037;-60
2021/07/10 07:23:21;;;;;;;14.82;7.68;;;;;;;29.97;42.47;101498.47;4996621;28;20422;-60
2021/07/10 07:25:46;;;;;;;15.05;7.88;;;;;;;29.94;41.17;101499.78;4996451;28;20022;-60
2021/07/10 07:28:12;;;;;;;11.68;6.30;;;;;;;29.86;41.71;101496.53;4996409;28;20026;-61
2021/07/10 07:30:37;;;;;;;11.82;6.78;;;;;;;29.84;41.15;101498.72;4996215;28;20475;-61
2021/07/10 07:33:03;;;;;;;13.57;7.10;;;;;;;29.82;41.70;101501.69;4996671;28;20030;-59
2021/07/10 07:35:28;;;;;;;9.48;5.97;;;;;;;29.78;41.72;101499.63;4996090;28;20356;-60
2021/07/10 07:37:54;;;;;;;14.55;6.95;;;;;;;29.73;41.88;101496.75;4996007;28;20450;-60
2021/07/10 07:40:19;;;;;;;11.65;6.63;;;;;;;29.66;41.18;101502.38;4996312;28;20027;-60
2021/07/10 07:42:46;;;;;;;12.02;7.13;;;;;;;29.59;41.25;101496.16;4996186;28;20475;-59
2021/07/10 07:45:12;;;;;;;8.32;5.85;;;;;;;29.56;41.72;101499.38;4996412;28;20073;-60
2021/07/10 07:47:38;;;;;;;11.85;6.55;;;;;;;29.53;41.58;101496.25;4996139;28;20522;-60
2021/07/10 07:50:06;;;;;;;9.43;5.72;;;;;;;29.53;41.88;101491.56;4995877;28;20191;-59
2021/07/10 07:52:31;;;;;;;14.02;7.35;;;;;;;29.54;42.04;101492.41;5027320;28;20026;-60
2021/07/10 07:54:57;;;;;;;10.18;6.43;;;;;;;29.59;41.41;101496.16;4995876;28;20117;-60
2021/07/10 07:57:22;;;;;;;12.15;5.95;;;;;;;29.66;41.21;101485.81;4995705;28;20057;-60
2021/07/10 07:59:47;;;;;;;12.20;6.13;;;;;;;29.74;41.79;101488.22;4996230;28;20026;-59
2021/07/10 08:02:13;;;;;;;13.38;7.93;;;;;;;29.83;41.77;101489.59;4995610;28;20101;-59
2021/07/10 08:04:38;;;;;;;13.20;7.45;;;;;;;29.93;41.58;101489.81;4995834;28;20030;-61
2021/07/10 08:07:04;;;;;;;18.52;7.25;;;;;;;30.01;41.25;101491.38;4995451;28;20114;-61
2021/07/10 08:09:29;;;;;;;12.30;6.82;;;;;;;30.08;41.43;101482.94;4995780;28;20026;-59
2021/07/10 08:11:55;;;;;;;11.95;7.55;;;;;;;30.17;41.09;101479.59;4995357;28;20030;-59
2021/07/10 08:14:22;;;;;;;14.13;6.93;;;;;;;30.28;40.85;101484.25;4995912;28;20034;-60
2021/07/10 08:16:48;;;;;;;11.63;6.45;;;;;;;30.36;40.73;101483.88;4995293;28;20023;-60
2021/07/10 08:19:13;;;;;;;11.45;7.10;;;;;;;30.46;40.87;101484.13;4995206;28;20025;-60
2021/07/10 08:21:39;;;;;;;12.55;7.20;;;;;;;30.49;40.53;101483.63;4994287;28;20031;-60
2021/07/10 08:24:04;;;;;;;12.93;7.18;;;;;;;30.55;40.86;101476.28;4995378;28;20383;-60
2021/07/10 08:26:30;;;;;;;14.10;7.40;;;;;;;30.66;40.20;101480.09;4995225;28;20489;-59
2021/07/10 08:28:55;;;;;;;12.48;6.25;;;;;;;30.82;40.15;101468.25;4995725;28;20022;-60
2021/07/10 08:31:22;;;;;;;11.55;6.63;;;;;;;30.97;40.35;101466.66;4994990;28;20054;-60
2021/07/10 08:33:47;;;;;;;13.18;6.75;;;;;;;31.12;40.02;101464.19;4993914;28;20100;-60
2021/07/10 08:36:13;;;;;;;10.80;6.72;;;;;;;31.15;40.41;101460.06;4995146;28;20022;-60
2021/07/10 08:38:38;;;;;;;10.27;6.70;;;;;;;31.24;39.94;101458.53;4995171;28;20061;-59
2021/07/10 08:41:08;;;;;;;11.88;6.18;;;;;;;31.30;39.64;101449.25;4993770;28;20030;-57
2021/07/10 08:43:33;;;;;;;11.77;6.22;;;;;;;31.31;39.37;101455.63;4995072;28;20030;-58
2021/07/10 08:46:01;;;;;;;12.68;5.53;;;;;;;31.24;39.71;101446.66;4994938;28;20375;-60
2021/07/10 08:48:27;;;;;;;13.05;6.25;;;;;;;31.26;39.84;101452.78;4994721;28;20061;-60
2021/07/10 08:50:53;;;;;;;11.50;6.50;;;;;;;31.20;39.71;101454.63;4993464;28;20134;-61
2021/07/10 08:53:19;;;;;;;10.50;5.50;;;;;;;31.15;39.52;101446.22;4994882;28;20403;-60
2021/07/10 08:55:50;;;;;;;9.25;5.00;;;;;;;31.17;39.84;101452.34;5026589;28;20067;-57
2021/07/10 08:58:15;;;;;;;11.75;5.38;;;;;;;31.18;39.77;101451.25;4994723;28;20359;-57
2021/07/10 09:00:41;;;;;;;11.25;7.13;;;;;;;31.20;39.46;101451.84;4994703;28;20033;-58
2021/07/10 09:03:07;;;;;;;15.10;7.35;;;;;;;31.18;39.74;101445.72;4995187;28;20027;-58
2021/07/10 09:05:33;;;;;;;13.13;6.22;;;;;;;31.23;39.61;101453.28;4994357;28;20065;-58
2021/07/10 09:08:19;;;;;;;9.57;6.38;;;;;;;31.24;39.34;101449.41;4994608;28;20422;-57
2021/07/10 09:11:10;;;;;;;11.63;6.20;;;;;;;31.21;39.04;101450.75;4993830;28;20058;-58
2021/07/10 09:13:50;;;;;;;8.15;5.53;;;;;;;31.21;39.11;101441.63;4994200;28;20030;-58
2021/07/10 09:16:29;;;;;;;9.05;5.72;;;;;;;31.18;39.01;101436.56;4993757;28;20062;-58
2021/07/10 09:19:04;;;;;;;10.90;6.00;;;;;;;31.18;39.22;101433.81;4993287;28;20053;-58
2021/07/10 09:21:48;;;;;;;11.30;5.57;;;;;;;31.22;39.34;101433.03;4994945;28;20025;-58
2021/07/10 09:24:22;;;;;;;10.93;5.93;;;;;;;31.27;39.28;101424.00;4994411;28;20049;-58
2021/07/10 09:26:52;;;;;;;11.35;6.53;;;;;;;31.37;39.29;101427.78;4994389;28;20019;-58
2021/07/10 09:29:22;;;;;;;7.75;4.82;;;;;;;31.50;38.70;101427.47;4994069;28;20034;-58
2021/07/10 09:31:53;;;;;;;8.35;5.75;;;;;;;31.68;38.71;101424.44;4993893;28;20105;-57
2021/07/10 09:34:21;;;;;;;9.27;6.20;;;;;;;31.87;38.29;101426.91;4994514;28;20034;-57
2021/07/10 09:37:07;;;;;;;9.27;5.60;;;;;;;31.92;37.83;101426.97;4993437;28;20022;-57
2021/07/10 09:39:35;;;;;;;11.45;6.40;;;;;;;32.05;38.16;101421.91;5025332;28;20054;-58
2021/07/10 09:42:01;;;;;;;13.10;6.65;;;;;;;32.27;37.23;101421.94;4994347;28;20033;-58
2021/07/10 09:44:48;;;;;;;12.05;6.35;;;;;;;32.68;37.54;101418.59;4996629;28;20038;-57
2021/07/10 09:47:15;;;;;;;8.88;6.25;;;;;;;33.08;36.56;101401.53;4997614;28;20030;-58
2021/07/10 09:49:45;;;;;;;10.18;7.07;;;;;;;33.50;37.04;101409.94;4997975;28;20022;-58
2021/07/10 09:52:12;;;;;;;9.90;5.95;;;;;;;34.03;35.42;101403.34;4997171;28;20407;-57
2021/07/10 09:54:52;;;;;;;12.30;6.18;;;;;;;34.59;35.86;101410.03;4998191;28;20126;-58
2021/07/10 09:57:21;;;;;;;10.45;5.95;;;;;;;35.01;34.53;101405.06;4997504;28;20022;-57
2021/07/10 09:59:51;;;;;;;8.68;6.40;;;;;;;35.47;34.47;101397.56;4998219;28;20119;-58
2021/07/10 10:02:29;;;;;;;15.75;6.40;;;;;;;36.02;33.69;101393.00;4997713;28;20069;-58
2021/07/10 10:05:09;;;;;;;8.23;5.78;;;;;;;36.72;32.91;101387.13;4997088;28;20041;-58
2021/07/10 10:07:45;;;;;;;7.60;4.95;;;;;;;37.20;32.12;101390.97;4998473;28;20042;-58
2021/07/10 10:10:24;;;;;;;17.92;16.58;;;;;;;37.63;31.57;101385.56;4997082;28;20026;-58
2021/07/10 10:13:04;;;;;;;9.43;8.43;;;;;;;37.69;31.83;101376.00;4998108;28;20414;-58
2021/07/10 10:15:34;;;;;;;8.65;5.95;;;;;;;37.54;32.11;101371.38;4997531;28;20022;-58
2021/07/10 10:18:00;;;;;;;5.45;4.47;;;;;;;37.73;31.49;101377.03;4997568;28;20077;-58
2021/07/10 10:20:26;;;;;;;6.25;4.05;;;;;;;37.08;31.80;101373.72;4997716;28;20541;-58
2021/07/10 10:22:51;;;;;;;6.95;5.03;;;;;;;37.58;30.61;101380.03;4995833;28;20044;-58
2021/07/10 10:25:17;;;;;;;6.53;4.05;;;;;;;38.16;30.35;101373.22;4996382;28;20109;-58
2021/07/10 10:27:48;;;;;;;5.45;4.78;;;;;;;38.32;30.60;101374.69;4997349;28;20097;-59
2021/07/10 10:30:15;;;;;;;9.10;5.10;;;;;;;38.30;30.95;101368.53;4997184;28;20105;-58
2021/07/10 10:32:43;;;;;;;6.90;4.68;;;;;;;37.62;31.16;101365.16;4997131;28;20475;-59
2021/07/10 10:35:08;;;;;;;8.35;5.55;;;;;;;37.97;30.33;101357.50;4997473;28;20022;-57
2021/07/10 10:37:36;;;;;;;7.00;5.53;;;;;;;38.27;29.50;101362.69;4997340;28;20521;-58
2021/07/10 10:40:05;;;;;;;10.80;5.32;;;;;;;38.63;29.03;101357.44;4996991;28;20022;-58
2021/07/10 10:42:31;;;;;;;6.50;5.05;;;;;;;38.89;29.09;101353.94;4995855;28;20037;-58
2021/07/10 10:44:57;;;;;;;7.93;5.15;;;;;;;39.30;28.39;101342.06;4996902;28;20089;-58
2021/07/10 10:47:24;;;;;;;9.38;6.30;;;;;;;39.66;29.17;101333.84;5028813;28;20026;-58
2021/07/10 10:49:51;;;;;;;8.27;5.25;;;;;;;39.72;28.25;101343.81;4996980;28;20034;-58
2021/07/10 10:52:32;;;;;;;11.50;5.28;;;;;;;39.75;29.15;101337.59;4996794;28;20050;-58
2021/07/10 10:55:20;;;;;;;6.35;3.38;;;;;;;39.25;29.36;101344.97;4996164;28;20033;-57
2021/07/10 10:57:45;;;;;;;8.00;4.43;;;;;;;39.11;28.63;101333.69;4997039;28;20028;-58
2021/07/10 11:00:30;;;;;;;3.95;3.40;;;;;;;39.35;28.25;101334.41;4996925;28;20105;-58
2021/07/10 11:02:57;;;;;;;6.38;4.00;;;;;;;39.53;28.29;101329.84;4996958;28;20026;-58
2021/07/10 11:05:31;;;;;;;4.53;2.90;;;;;;;39.71;27.31;101333.72;4996849;28;20050;-58
2021/07/10 11:08:18;;;;;;;5.93;3.30;;;;;;;39.70;27.54;101327.28;4996876;28;20414;-58
2021/07/10 11:10:53;;;;;;;9.10;3.65;;;;;;;39.18;28.12;101311.69;4996547;28;20026;-58
2021/07/10 11:13:32;;;;;;;6.30;3.28;;;;;;;38.61;27.90;101309.28;4996819;28;20101;-58
2021/07/10 11:16:03;;;;;;;4.40;3.45;;;;;;;38.26;28.76;101317.06;4996786;28;20120;-58
2021/07/10 11:18:28;;;;;;;5.25;3.88;;;;;;;37.84;28.35;101317.88;4996736;28;20036;-57